Flight Track Log - Related Links

Times and Time Zones

All times are in EDT time to prevent confusion due to time zone crossing. See the SWA286 flight status page for this flight to view local times or setup timezone preferences in your user account.

Time Position Orientation Groundspeed Altitude Reporting Facility
EDT Latitude Longitude Course Direction KTS MPH feet Rate Location/Type
Mon 04:37:50 PM 36.1500 -86.6667 360° North 179 206 1,300  Level Nashville TRACON
Mon 04:38:26 PM 36.1833 -86.6667 360° North 200 230 2,400 2,188 Climbing Nashville TRACON
Mon 04:39:26 PM 36.2333 -86.7000 332° Northwest 266 306 4,800 2,800 Climbing Nashville TRACON
Mon 04:40:26 PM 36.2333 -86.7833 270° West 278 320 8,000 3,026 Climbing Nashville TRACON
Mon 04:41:21 PM 36.2367 -86.8731 273° West 312 359 10,600 2,348 Climbing Memphis Center
Mon 04:42:21 PM 36.2486 -86.9986 277° West 332 382 12,500 2,550 Climbing Memphis Center
Mon 04:43:21 PM 36.2600 -87.1192 277° West 348 400 15,700 2,900 Climbing Memphis Center
Mon 04:44:21 PM 36.2736 -87.2419 278° West 365 420 18,300 2,600 Climbing Memphis Center
Mon 04:45:21 PM 36.2956 -87.3700 282° West 377 434 20,900 2,550 Climbing Memphis Center
Mon 04:46:21 PM 36.3197 -87.5056 283° West 394 453 23,400 2,300 Climbing Memphis Center
Mon 04:47:21 PM 36.3725 -87.6275 298° West 394 453 25,500 1,800 Climbing Memphis Center
Mon 04:48:21 PM 36.4228 -87.7392 299° West 407 468 27,000 1,650 Climbing Memphis Center
Mon 04:49:21 PM 36.4797 -87.8689 299° West 420 483 28,800 1,800 Climbing Memphis Center
Mon 04:50:21 PM 36.5386 -88.0014 299° West 431 496 30,600 1,750 Climbing Memphis Center
Mon 04:51:21 PM 36.5992 -88.1317 300° West 431 496 32,300 1,600 Climbing Memphis Center
Mon 04:52:21 PM 36.6517 -88.2647 296° West 436 502 33,800 1,550 Climbing Memphis Center
Mon 04:53:21 PM 36.6769 -88.4139 282° West 436 502 35,400 1,500 Climbing Memphis Center
Mon 04:54:21 PM 36.6981 -88.5611 280° West 436 502 36,800 1,250 Climbing Memphis Center
Mon 04:55:21 PM 36.7228 -88.7028 282° West 431 496 37,900 600 Climbing Memphis Center
Mon 04:56:21 PM 36.7456 -88.8500 281° West 431 496 38,000 50 Climbing Memphis Center
Mon 04:57:21 PM 36.7681 -88.9944 281° West 431 496 38,000  Level Memphis Center
Mon 04:58:21 PM 36.7906 -89.1419 281° West 431 496 38,000  Level Memphis Center
Mon 04:59:21 PM 36.8125 -89.2839 281° West 431 496 38,000  Level Memphis Center
Mon 05:00:21 PM 36.8325 -89.4289 280° West 431 496 38,000  Level Memphis Center
Mon 05:01:21 PM 36.8544 -89.5739 281° West 431 496 38,000  Level Memphis Center
Mon 05:02:21 PM 36.8739 -89.7164 280° West 431 496 38,000  Level Memphis Center
Mon 05:03:21 PM 36.8975 -89.8589 282° West 425 489 38,000  Level Memphis Center
Mon 05:04:21 PM 36.9147 -89.9989 279° West 425 489 38,000  Level Memphis Center
Mon 05:05:21 PM 36.9358 -90.1414 281° West 425 489 38,000  Level Memphis Center
Mon 05:06:21 PM 36.9569 -90.2842 281° West 425 489 38,000  Level Memphis Center
Mon 05:07:53 PM 36.9886 -90.5014 280° West 415 478 38,000  Level Kansas City Center
Mon 05:08:55 PM 37.0086 -90.6447 280° West 418 481 38,000  Level Kansas City Center
Mon 05:09:57 PM 37.0283 -90.7875 280° West 417 480 38,000  Level Kansas City Center
Mon 05:10:59 PM 37.0481 -90.9306 280° West 418 481 38,000  Level Kansas City Center
Mon 05:12:01 PM 37.0711 -91.1044 279° West 421 484 38,000  Level Kansas City Center
Mon 05:13:03 PM 37.0967 -91.2353 284° West 421 484 38,000  Level Kansas City Center
Mon 05:14:05 PM 37.1342 -91.3739 289° West 419 482 38,000  Level Kansas City Center
Mon 05:15:07 PM 37.1683 -91.5133 287° West 419 482 38,000  Level Kansas City Center
Mon 05:16:09 PM 37.2108 -91.6786 288° West 415 478 38,000  Level Kansas City Center
Mon 05:17:11 PM 37.2456 -91.8178 287° West 415 478 38,000  Level Kansas City Center
Mon 05:18:13 PM 37.2806 -91.9575 288° West 417 480 38,000  Level Kansas City Center
Mon 05:19:15 PM 37.3156 -92.0975 287° West 418 481 38,000  Level Kansas City Center
Mon 05:20:17 PM 37.3511 -92.2400 287° West 422 486 38,000  Level Kansas City Center
Mon 05:21:19 PM 37.3867 -92.3800 288° West 419 482 38,000  Level Kansas City Center
Mon 05:22:21 PM 37.4197 -92.5200 287° West 415 478 38,000  Level Kansas City Center
Mon 05:23:24 PM 37.4542 -92.6614 287° West 417 480 38,000  Level Kansas City Center
Mon 05:24:26 PM 37.4969 -92.8311 288° West 421 484 38,000  Level Kansas City Center
Mon 05:25:28 PM 37.5303 -92.9708 287° West 415 478 38,000  Level Kansas City Center
Mon 05:26:30 PM 37.5636 -93.1094 287° West 413 475 38,000  Level Kansas City Center
Mon 05:27:32 PM 37.5967 -93.2475 287° West 410 472 38,000  Level Kansas City Center
Mon 05:28:34 PM 37.6297 -93.3867 287° West 412 474 38,000  Level Kansas City Center
Mon 05:29:36 PM 37.6617 -93.5250 286° West 411 473 38,000  Level Kansas City Center
Mon 05:30:38 PM 37.6936 -93.6636 286° West 410 472 38,000  Level Kansas City Center
Mon 05:31:40 PM 37.7261 -93.8031 286° West 412 474 38,000  Level Kansas City Center
Mon 05:32:42 PM 37.7653 -93.9711 286° West 415 478 38,000  Level Kansas City Center
Mon 05:33:44 PM 37.7975 -94.1108 286° West 414 476 38,000  Level Kansas City Center
Mon 05:34:46 PM 37.8300 -94.2506 286° West 414 476 38,000  Level Kansas City Center
Mon 05:35:48 PM 37.8600 -94.3914 285° West 414 476 38,000  Level Kansas City Center
Mon 05:36:50 PM 37.8942 -94.5397 286° West 414 476 38,000  Level Kansas City Center
Mon 05:37:52 PM 37.9247 -94.6739 286° West 414 476 38,000  Level Kansas City Center
Mon 05:38:54 PM 37.9586 -94.8292 286° West 411 473 38,000  Level Kansas City Center
Mon 05:39:56 PM 37.9886 -94.9619 286° West 410 472 38,000  Level Kansas City Center
Mon 05:40:58 PM 38.0222 -95.1183 285° West 410 472 38,000  Level Kansas City Center
Mon 05:42:00 PM 38.0506 -95.2511 285° West 405 466 38,000  Level Kansas City Center
Mon 05:43:02 PM 38.0875 -95.4053 287° West 408 470 38,000  Level Kansas City Center
Mon 05:44:04 PM 38.1669 -95.5022 316° Northwest 416 479 38,000  Level Kansas City Center
Mon 05:45:06 PM 38.2972 -95.5453 345° North 433 498 38,000  Level Kansas City Center
Mon 05:46:08 PM 38.3819 -95.6336 321° Northwest 414 476 38,000  Level Kansas City Center
Mon 05:47:10 PM 38.4122 -95.7661 286° West 406 467 38,000  Level Kansas City Center
Mon 05:48:12 PM 38.4344 -95.9247 280° West 406 467 38,000  Level Kansas City Center
Mon 05:49:14 PM 38.4531 -96.0614 280° West 409 471 38,000  Level Kansas City Center
Mon 05:50:16 PM 38.4747 -96.2211 280° West 408 470 38,000  Level Kansas City Center
Mon 05:51:18 PM 38.4942 -96.3589 280° West 412 474 38,000  Level Kansas City Center
Mon 05:52:20 PM 38.5150 -96.5156 280° West 403 464 38,000  Level Kansas City Center
Mon 05:53:22 PM 38.5328 -96.6506 280° West 402 463 38,000  Level Kansas City Center
Mon 05:54:24 PM 38.5542 -96.8086 280° West 403 464 38,000  Level Kansas City Center
Mon 05:55:26 PM 38.5700 -96.9386 279° West 407 468 38,000  Level Kansas City Center
Mon 05:56:28 PM 38.5889 -97.0811 280° West 408 470 38,000  Level Kansas City Center
Mon 05:57:30 PM 38.6067 -97.2250 279° West 412 474 38,000  Level Kansas City Center
Mon 05:58:32 PM 38.6286 -97.3986 279° West 415 478 38,000  Level Kansas City Center
Mon 05:59:34 PM 38.6467 -97.5447 279° West 418 481 38,000  Level Kansas City Center
Mon 06:00:36 PM 38.6647 -97.6914 279° West 420 483 38,000  Level Kansas City Center
Mon 06:01:38 PM 38.6831 -97.8367 279° West 418 481 38,000  Level Kansas City Center
Mon 06:02:40 PM 38.6997 -97.9792 279° West 409 471 38,000  Level Kansas City Center
Mon 06:03:43 PM 38.7208 -98.1531 279° West 414 476 38,000  Level Kansas City Center
Mon 06:04:45 PM 38.7378 -98.3000 278° West 418 481 38,000  Level Kansas City Center
Mon 06:05:47 PM 38.7561 -98.4442 279° West 414 476 38,000  Level Kansas City Center
Mon 06:06:49 PM 38.7714 -98.5911 278° West 417 480 38,000  Level Kansas City Center
Mon 06:07:51 PM 38.7892 -98.7378 279° West 418 481 38,000  Level Kansas City Center
Mon 06:08:53 PM 38.8047 -98.8861 278° West 421 484 38,000  Level Kansas City Center
Mon 06:09:55 PM 38.8253 -99.0611 279° West 416 479 38,000  Level Kansas City Center
Mon 06:10:57 PM 38.8406 -99.2069 278° West 414 476 38,000  Level Kansas City Center
Mon 06:11:59 PM 38.8497 -99.3536 275° West 414 476 38,000  Level Kansas City Center
Mon 06:13:00 PM 38.8500 -99.4828 270° West 415 478 38,000  Level Denver Center
Mon 06:14:02 PM 38.8514 -99.6733 271° West 420 483 38,000  Level Denver Center
Mon 06:15:04 PM 38.8533 -99.8125 271° West 412 474 38,000  Level Denver Center
Mon 06:16:06 PM 38.8531 -99.9736 270° West 408 470 38,000  Level Denver Center
Mon 06:17:08 PM 38.8547 -100.1117 271° West 405 466 38,000  Level Denver Center
Mon 06:18:09 PM 38.8556 -100.2714 270° West 403 464 38,000  Level Denver Center
Mon 06:19:11 PM 38.8550 -100.4081 270° West 402 463 38,000  Level Denver Center
Mon 06:20:13 PM 38.8550 -100.5247 270° West 407 468 38,000  Level Denver Center
Mon 06:21:15 PM 38.8558 -100.7083 270° West 407 468 38,000  Level Denver Center
Mon 06:22:17 PM 38.8547 -100.8489 269° West 409 471 38,000 -339 Level Denver Center
Mon 06:23:19 PM 38.8544 -101.0133 270° West 413 475 37,300 -774 Descending Denver Center
Mon 06:24:21 PM 38.8533 -101.1567 269° West 422 486 36,400 -629 Descending Denver Center
Mon 06:25:23 PM 38.8533 -101.3222 270° West 418 481 36,000 -622 Descending Denver Center
Mon 06:26:36 PM 38.8522 -101.4647 269° West 420 483 35,000 -971 Descending Denver Center
Mon 06:27:39 PM 38.8511 -101.6564 270° West 421 484 33,800 -1,065 Descending Denver Center
Mon 06:28:40 PM 38.8489 -101.8281 269° West 429 494 32,800 -878 Descending Denver Center
Mon 06:29:42 PM 38.8472 -101.9775 269° West 438 504 32,000 -387 Descending Denver Center
Mon 06:30:44 PM 38.8442 -102.1292 269° West 444 511 32,000  Level Denver Center
Mon 06:31:46 PM 38.8425 -102.3025 269° West 438 504 32,000  Level Denver Center
Mon 06:32:48 PM 38.8394 -102.4522 269° West 438 504 32,000  Level Denver Center
Mon 06:33:49 PM 38.8678 -102.6172 282° West 427 491 32,000  Level Denver Center
Mon 06:34:51 PM 38.9183 -102.7511 296° West 434 499 32,000  Level Denver Center
Mon 06:35:53 PM 38.9753 -102.8864 298° West 431 496 32,000  Level Denver Center
Mon 06:36:55 PM 39.0308 -103.0244 297° West 431 496 32,000 -1,073 Level Denver Center
Mon 06:37:56 PM 39.0958 -103.1842 298° West 427 491 29,800 -2,293 Descending Denver Center
Mon 06:38:58 PM 39.1494 -103.3169 298° West 415 478 27,300 -2,419 Descending Denver Center
Mon 06:40:00 PM 39.2017 -103.4453 298° West 404 465 24,800 -2,323 Descending Denver Center
Mon 06:41:02 PM 39.2514 -103.5719 297° West 395 455 22,500 -2,195 Descending Denver Center
Mon 06:42:03 PM 39.2986 -103.6897 297° West 372 428 20,300 -2,293 Descending Denver Center
Mon 06:43:05 PM 39.3444 -103.8075 297° West 366 421 17,800 -1,548 Descending Denver Center
Mon 06:44:07 PM 39.3914 -103.9250 297° West 348 400 17,100 -968 Descending Denver Center
Mon 06:45:09 PM 39.3992 -104.0397 275° West 326 375 15,800 -1,415 Descending Denver Center
Mon 06:46:10 PM 39.4064 -104.1497 275° West 294 338 14,200 -1,317 Descending Denver Center
Mon 06:47:12 PM 39.4103 -104.2525 273° West 287 330 13,100 -871 Descending Denver Center
Mon 06:48:14 PM 39.4147 -104.3453 274° West 259 298 12,400 -878 Descending Denver Center
Mon 06:49:15 PM 39.4203 -104.4378 274° West 242 278 11,300 -1,122 Descending Denver Center
Mon 06:50:17 PM 39.4778 -104.4808 330° Northwest 249 287 10,100 -1,113 Descending Denver Center
Mon 06:51:19 PM 39.5389 -104.5181 335° Northwest 243 280 9,000 -1,016 Descending Denver Center
Mon 06:52:21 PM 39.6039 -104.5564 336° Northwest 240 276 8,000 -823 Descending Denver Center
Mon 06:53:23 PM 39.6644 -104.5922 336° Northwest 242 278 7,300 -444 Descending Denver Center
Mon 06:54:36 PM 39.7300 -104.6308 336° Northwest 243 280 7,000 -533 Descending Denver Center
Mon 06:55:38 PM 39.7942 -104.6425 352° North 188 216 6,100 -706 Descending Denver Center
Mon 06:56:52 PM 39.8394 -104.6419 North 163 188 5,400 -568 Descending Denver Center
Mon 06:58:00 PM 39.8500 -104.6667 North  Level FlightAware Approximate
Mon 07:05:00 PM 39.8617 -104.6732 North  Level Estimated
Mon 07:06:00 PM 39.8617 -104.6732 North  Level Estimated
Mon 07:07:00 PM 39.8617 -104.6732 North  Level Estimated
Mon 07:08:00 PM 39.8617 -104.6732 North  Level Estimated
Mon 07:09:00 PM 39.8617 -104.6732 North  Level Estimated
Mon 07:10:00 PM 39.8617 -104.6732 North  Level Estimated
Mon 07:11:00 PM 39.8617 -104.6732 North  Level Estimated
Mon 07:12:00 PM 39.8617 -104.6732 North  Level Estimated
Mon 07:13:00 PM 39.8617 -104.6732 North  Level Estimated
Mon 07:14:00 PM 39.8617 -104.6732 North  Level Estimated
Mon 07:15:00 PM 39.8617 -104.6732 North  Level Estimated

Login

Don't have an account? Register now (free) for customized features, flight alerts, and more!